createdAt,value
2023-02-14T00:00:40.176Z,65.87
2023-02-14T00:03:25.463Z,64.37
2023-02-14T00:06:11.039Z,67.73
2023-02-14T00:08:55.212Z,71.23
2023-02-14T00:11:39.242Z,60.60
2023-02-14T00:14:40.780Z,68.90
2023-02-14T00:17:24.478Z,67.70
2023-02-14T00:20:10.833Z,63.07
2023-02-14T00:22:54.929Z,65.37
2023-02-14T00:25:38.684Z,75.60
2023-02-14T00:28:22.527Z,78.50
2023-02-14T00:31:06.536Z,72.90
2023-02-14T00:33:50.462Z,67.90
2023-02-14T00:36:36.066Z,66.97
2023-02-14T00:39:21.234Z,68.60
2023-02-14T00:42:05.184Z,68.07
2023-02-14T00:44:49.062Z,66.70
2023-02-14T00:47:33.101Z,68.40
2023-02-14T00:50:17.200Z,67.70
2023-02-14T00:53:02.859Z,71.17
2023-02-14T00:55:47.314Z,67.40
2023-02-14T00:58:32.601Z,67.67
2023-02-14T01:01:18.195Z,76.83
2023-02-14T01:04:02.195Z,76.03
2023-02-14T01:06:46.109Z,68.23
2023-02-14T01:09:31.927Z,72.67
2023-02-14T01:12:19.214Z,86.90
2023-02-14T01:15:03.246Z,72.57
2023-02-14T01:17:48.538Z,72.77
2023-02-14T01:20:32.393Z,70.60
2023-02-14T01:23:16.314Z,72.47
2023-02-14T01:26:05.918Z,74.87
2023-02-14T01:28:50.084Z,70.80
2023-02-14T01:31:35.763Z,72.87
2023-02-14T01:34:19.768Z,74.70
2023-02-14T01:37:04.035Z,73.23
2023-02-14T01:39:47.783Z,75.00
2023-02-14T01:42:34.909Z,76.30
2023-02-14T01:45:22.718Z,86.03
2023-02-14T01:48:06.580Z,86.53
2023-02-14T01:50:53.882Z,85.37
2023-02-14T01:53:38.604Z,71.57
2023-02-14T01:56:29.293Z,73.93
2023-02-14T01:59:19.395Z,74.77
2023-02-14T02:02:03.621Z,72.47
2023-02-14T02:04:48.155Z,76.27
2023-02-14T02:07:31.946Z,67.73
2023-02-14T02:10:15.727Z,73.43
2023-02-14T02:13:03.255Z,75.73
2023-02-14T02:15:57.366Z,74.03
2023-02-14T02:18:59.723Z,72.47
2023-02-14T02:22:05.710Z,73.93
2023-02-14T02:24:57.381Z,75.70
2023-02-14T02:28:17.613Z,74.57
2023-02-14T02:31:29.551Z,75.03
2023-02-14T02:34:36.701Z,80.97
2023-02-14T02:37:37.296Z,75.00
2023-02-14T02:40:35.186Z,74.70
2023-02-14T02:43:31.998Z,85.27
2023-02-14T02:46:40.836Z,78.73
2023-02-14T02:50:03.955Z,84.63
2023-02-14T02:53:07.206Z,83.70
2023-02-14T02:56:16.003Z,78.13
2023-02-14T02:59:06.987Z,76.37
2023-02-14T03:01:56.211Z,82.80
2023-02-14T03:04:54.791Z,74.30
2023-02-14T03:07:41.708Z,73.97
2023-02-14T03:10:31.653Z,70.83
2023-02-14T03:13:48.509Z,77.17
2023-02-14T03:16:36.613Z,72.80
2023-02-14T03:19:50.253Z,74.47
2023-02-14T03:22:44.733Z,68.13
2023-02-14T03:25:42.921Z,71.67
2023-02-14T03:28:35.018Z,73.13
2023-02-14T03:31:25.463Z,76.20
2023-02-14T03:34:15.590Z,81.40
2023-02-14T03:37:04.561Z,72.10
2023-02-14T03:39:59.305Z,79.70
2023-02-14T03:42:48.562Z,85.33
2023-02-14T03:45:36.950Z,89.00
2023-02-14T03:48:25.219Z,87.43
2023-02-14T03:51:10.886Z,91.43
2023-02-14T03:53:58.487Z,84.53
2023-02-14T03:56:46.867Z,88.70
2023-02-14T03:59:32.659Z,83.80
2023-02-14T04:02:21.459Z,93.07
2023-02-14T04:05:11.085Z,109.53
2023-02-14T04:07:57.364Z,97.00
2023-02-14T04:10:43.323Z,93.27
2023-02-14T04:13:27.747Z,98.67
2023-02-14T04:16:13.051Z,99.93
2023-02-14T04:19:14.462Z,101.47
2023-02-14T04:21:58.237Z,85.13
2023-02-14T04:24:42.170Z,89.97
2023-02-14T04:27:25.994Z,87.57
2023-02-14T04:30:12.613Z,75.07
2023-02-14T04:32:58.032Z,71.97
2023-02-14T04:35:41.906Z,64.63
2023-02-14T04:38:25.618Z,58.90
2023-02-14T04:41:09.406Z,60.80
2023-02-14T04:43:53.241Z,62.23
2023-02-14T04:46:37.060Z,51.73
2023-02-14T04:49:22.381Z,56.47
2023-02-14T04:52:07.477Z,75.10
2023-02-14T04:54:51.305Z,73.33
2023-02-14T04:57:35.143Z,72.80
2023-02-14T05:00:20.109Z,53.23
2023-02-14T05:03:04.061Z,68.47
2023-02-14T05:05:49.334Z,60.23
2023-02-14T05:08:33.175Z,56.73
2023-02-14T05:11:17.110Z,51.20
2023-02-14T05:14:01.060Z,52.23
2023-02-14T05:16:45.134Z,63.73
2023-02-14T05:19:29.159Z,59.27
2023-02-14T05:22:15.388Z,82.73
2023-02-14T05:25:00.618Z,63.10
2023-02-14T05:27:44.421Z,57.00
2023-02-14T05:30:29.015Z,51.37
2023-02-14T05:33:13.256Z,50.93
2023-02-14T05:35:59.674Z,57.63
2023-02-14T05:38:44.852Z,50.73
2023-02-14T05:41:28.843Z,58.63
2023-02-14T05:44:12.711Z,46.50
2023-02-14T05:46:56.733Z,54.47
2023-02-14T05:49:40.555Z,58.37
2023-02-14T05:52:24.483Z,64.03
2023-02-14T05:55:10.687Z,70.90
2023-02-14T05:57:54.651Z,74.17
2023-02-14T06:00:41.505Z,69.03
2023-02-14T06:03:25.588Z,61.87
2023-02-14T06:06:09.454Z,61.67
2023-02-14T06:08:53.300Z,68.13
2023-02-14T06:11:38.578Z,70.43
2023-02-14T06:14:22.355Z,71.83
2023-02-14T06:17:06.155Z,77.93
2023-02-14T06:19:50.093Z,70.00
2023-02-14T06:22:34.018Z,75.67
2023-02-14T06:25:18.561Z,73.47
2023-02-14T06:28:03.835Z,69.77
2023-02-14T06:30:48.038Z,68.63
2023-02-14T06:33:31.969Z,45.93
2023-02-14T06:36:16.445Z,52.10
2023-02-14T06:39:00.481Z,60.33
2023-02-14T06:41:44.306Z,67.83
2023-02-14T06:44:29.588Z,67.97
2023-02-14T06:47:13.341Z,61.40
2023-02-14T06:49:57.130Z,65.00
2023-02-14T06:52:42.180Z,60.73
2023-02-14T06:55:26.251Z,59.10
2023-02-14T06:58:10.218Z,65.57
2023-02-14T07:00:57.612Z,60.30
2023-02-14T07:03:41.631Z,40.47
2023-02-14T07:06:25.711Z,34.97
2023-02-14T07:09:09.491Z,28.43
2023-02-14T07:11:53.312Z,29.37
2023-02-14T07:14:37.173Z,30.90
2023-02-14T07:17:22.446Z,29.57
2023-02-14T07:20:11.211Z,29.07
2023-02-14T07:22:55.575Z,29.30
2023-02-14T07:25:40.771Z,28.30
2023-02-14T07:28:24.571Z,30.23
2023-02-14T07:31:08.484Z,32.57
2023-02-14T07:33:53.835Z,30.43
2023-02-14T07:36:38.845Z,28.97
2023-02-14T07:39:22.948Z,28.40
2023-02-14T07:42:08.344Z,29.57
2023-02-14T07:44:52.496Z,35.87
2023-02-14T07:47:36.420Z,29.67
2023-02-14T07:50:23.650Z,25.70
2023-02-14T07:53:08.713Z,30.10
2023-02-14T07:55:53.235Z,28.87
2023-02-14T07:58:37.291Z,31.13
2023-02-14T08:01:21.693Z,31.43
2023-02-14T08:04:05.952Z,29.03
2023-02-14T08:06:51.023Z,28.20
2023-02-14T08:09:34.942Z,27.23
2023-02-14T08:12:35.847Z,28.07
2023-02-14T08:15:37.464Z,27.90
2023-02-14T08:18:23.222Z,28.93
2023-02-14T08:21:09.020Z,30.33
2023-02-14T08:23:54.392Z,27.40
2023-02-14T08:26:38.591Z,28.40
2023-02-14T08:29:22.603Z,26.67
2023-02-14T08:32:06.786Z,28.80
2023-02-14T08:34:50.731Z,31.30
2023-02-14T08:37:34.655Z,25.90
2023-02-14T08:40:20.663Z,27.03
2023-02-14T08:43:05.016Z,30.50
2023-02-14T08:45:50.630Z,26.13
2023-02-14T08:48:39.051Z,27.33
2023-02-14T08:51:23.991Z,29.00
2023-02-14T08:54:07.967Z,28.77
2023-02-14T08:56:53.183Z,30.40
2023-02-14T08:59:37.044Z,30.47
2023-02-14T09:02:21.050Z,28.43
2023-02-14T09:05:06.295Z,30.50
2023-02-14T09:07:50.282Z,30.60
2023-02-14T09:10:34.059Z,29.87
2023-02-14T09:13:19.280Z,30.53
2023-02-14T09:16:05.570Z,28.77
2023-02-14T09:18:50.884Z,28.20
2023-02-14T09:21:35.227Z,31.43
2023-02-14T09:24:19.140Z,29.70
2023-02-14T09:27:02.988Z,29.67
2023-02-14T09:29:48.238Z,31.20
2023-02-14T09:32:32.017Z,27.07
2023-02-14T09:35:16.725Z,28.67
2023-02-14T09:38:19.318Z,28.27
2023-02-14T09:41:08.071Z,23.07
2023-02-14T09:43:59.795Z,24.37
2023-02-14T09:46:49.789Z,22.37
2023-02-14T09:49:37.552Z,23.70
2023-02-14T09:52:23.875Z,23.77
2023-02-14T09:55:15.284Z,26.80
2023-02-14T09:58:07.374Z,24.10
2023-02-14T10:00:58.731Z,26.57
2023-02-14T10:04:09.808Z,23.73
2023-02-14T10:06:58.705Z,23.33
2023-02-14T10:09:53.749Z,24.27
2023-02-14T10:12:41.481Z,26.97
2023-02-14T10:15:28.880Z,23.43
2023-02-14T10:18:20.052Z,20.73
2023-02-14T10:21:08.848Z,18.07
2023-02-14T10:23:59.220Z,22.30
2023-02-14T10:26:44.617Z,17.27
2023-02-14T10:29:28.525Z,17.60
2023-02-14T10:32:16.923Z,20.63
2023-02-14T10:35:07.075Z,17.60
2023-02-14T10:38:02.520Z,18.50
2023-02-14T10:41:02.463Z,16.50
2023-02-14T10:43:55.148Z,15.40
2023-02-14T10:46:46.075Z,17.10
2023-02-14T10:49:44.076Z,14.37
2023-02-14T10:52:34.474Z,14.00
2023-02-14T10:55:32.473Z,16.43
2023-02-14T10:58:20.966Z,14.27
2023-02-14T11:01:08.587Z,21.33
2023-02-14T11:03:56.204Z,14.80
2023-02-14T11:06:40.173Z,13.77
2023-02-14T11:09:24.035Z,17.40
2023-02-14T11:12:10.356Z,13.50
2023-02-14T11:15:10.205Z,17.40
2023-02-14T11:18:11.085Z,12.90
2023-02-14T11:21:03.346Z,15.07
2023-02-14T11:23:48.807Z,15.37
2023-02-14T11:26:35.985Z,14.90
2023-02-14T11:29:28.573Z,14.67
2023-02-14T11:32:16.926Z,16.27
2023-02-14T11:35:02.880Z,17.23
2023-02-14T11:37:53.567Z,17.67
2023-02-14T11:40:39.815Z,14.47
2023-02-14T11:43:33.494Z,19.00
2023-02-14T11:46:28.105Z,12.80
2023-02-14T11:49:28.331Z,27.40
2023-02-14T11:52:17.431Z,15.60
2023-02-14T11:55:02.421Z,15.27
2023-02-14T11:57:47.756Z,11.77
2023-02-14T12:00:32.235Z,11.77
2023-02-14T12:03:20.769Z,10.67
2023-02-14T12:06:04.752Z,20.60
2023-02-14T12:08:48.660Z,13.80
2023-02-14T12:11:33.214Z,10.37
2023-02-14T12:14:23.459Z,13.70
2023-02-14T12:17:20.034Z,10.10
2023-02-14T12:20:13.402Z,13.90
2023-02-14T12:23:03.603Z,12.40
2023-02-14T12:25:54.092Z,11.70
2023-02-14T12:28:42.308Z,11.90
2023-02-14T12:31:26.703Z,12.20
2023-02-14T12:34:13.028Z,13.20
2023-02-14T12:37:13.420Z,19.80
2023-02-14T12:40:21.958Z,9.47
2023-02-14T12:43:23.439Z,12.10
2023-02-14T12:46:22.885Z,11.50
2023-02-14T12:49:23.228Z,10.23
2023-02-14T12:52:24.123Z,9.33
2023-02-14T12:55:28.548Z,9.60
2023-02-14T12:58:23.967Z,10.30
2023-02-14T13:01:38.732Z,10.80
2023-02-14T13:04:41.056Z,8.87
2023-02-14T13:07:44.839Z,11.77
2023-02-14T13:10:46.654Z,10.83
2023-02-14T13:13:42.541Z,9.97
2023-02-14T13:16:35.417Z,7.50
2023-02-14T13:19:34.913Z,9.43
2023-02-14T13:22:21.823Z,11.57
2023-02-14T13:25:14.784Z,11.33
2023-02-14T13:27:59.611Z,7.37
2023-02-14T13:30:43.437Z,11.10
2023-02-14T13:33:34.749Z,12.00
2023-02-14T13:36:20.044Z,9.87
2023-02-14T13:39:05.484Z,8.57
2023-02-14T13:41:50.931Z,7.87
2023-02-14T13:44:44.302Z,12.73
2023-02-14T13:47:28.556Z,8.73
2023-02-14T13:50:22.170Z,9.30
2023-02-14T13:53:06.076Z,13.73
2023-02-14T13:55:55.928Z,12.10
2023-02-14T13:58:48.405Z,11.87
2023-02-14T14:01:39.083Z,16.53
2023-02-14T14:04:37.380Z,12.07
2023-02-14T14:07:24.441Z,10.43
2023-02-14T14:10:13.059Z,9.87
2023-02-14T14:12:57.909Z,28.07
2023-02-14T14:16:21.340Z,9.30
2023-02-14T14:19:11.741Z,11.83
2023-02-14T14:22:03.293Z,9.07
2023-02-14T14:24:54.817Z,10.77
2023-02-14T14:27:45.359Z,9.93
2023-02-14T14:30:33.570Z,10.07
2023-02-14T14:33:28.059Z,9.33
2023-02-14T14:36:23.210Z,7.87
2023-02-14T14:39:07.008Z,8.83
2023-02-14T14:41:51.005Z,8.93
2023-02-14T14:44:36.716Z,10.20
2023-02-14T14:47:24.529Z,14.20
2023-02-14T14:50:17.453Z,9.53
2023-02-14T14:53:04.265Z,8.73
2023-02-14T14:55:52.081Z,12.03
2023-02-14T14:58:38.694Z,9.00
2023-02-14T15:01:34.496Z,13.47
2023-02-14T15:04:20.874Z,11.07
2023-02-14T15:07:21.068Z,10.50
2023-02-14T15:10:05.492Z,10.97
2023-02-14T15:13:07.069Z,8.97
2023-02-14T15:15:52.835Z,9.50
2023-02-14T15:18:36.912Z,9.50
2023-02-14T15:21:21.396Z,9.77
2023-02-14T15:24:14.612Z,11.83
2023-02-14T15:26:58.957Z,9.90
2023-02-14T15:29:42.965Z,10.13
2023-02-14T15:32:29.375Z,10.50
2023-02-14T15:35:16.242Z,10.80
2023-02-14T15:38:03.817Z,10.83
2023-02-14T15:40:49.220Z,10.80
2023-02-14T15:43:34.703Z,10.73
2023-02-14T15:46:27.615Z,12.60
2023-02-14T15:49:16.930Z,26.80
2023-02-14T15:52:04.140Z,44.00
2023-02-14T15:54:49.024Z,46.53
2023-02-14T15:57:35.342Z,29.00
2023-02-14T16:00:22.341Z,24.47
2023-02-14T16:03:09.544Z,56.53
2023-02-14T16:05:54.825Z,24.30
2023-02-14T16:08:41.760Z,15.40
2023-02-14T16:11:31.391Z,20.70
2023-02-14T16:14:31.352Z,19.90
2023-02-14T16:17:34.435Z,16.40
2023-02-14T16:20:25.224Z,16.47
2023-02-14T16:23:19.658Z,17.00
2023-02-14T16:26:03.616Z,15.27
2023-02-14T16:28:47.466Z,12.13
2023-02-14T16:31:33.480Z,16.57
2023-02-14T16:34:17.837Z,14.07
2023-02-14T16:37:08.625Z,22.97
2023-02-14T16:39:56.731Z,17.27
2023-02-14T16:42:41.115Z,14.03
2023-02-14T16:45:25.109Z,22.40
2023-02-14T16:48:10.768Z,22.93
2023-02-14T16:50:54.789Z,26.07
2023-02-14T16:53:38.670Z,28.63
2023-02-14T16:56:26.834Z,17.97
2023-02-14T16:59:11.773Z,16.53
2023-02-14T17:01:55.563Z,15.13
2023-02-14T17:04:41.021Z,14.67
2023-02-14T17:07:25.058Z,16.30
2023-02-14T17:10:17.570Z,13.03
2023-02-14T17:13:03.546Z,11.93
2023-02-14T17:15:47.524Z,14.67
2023-02-14T17:18:33.207Z,15.83
2023-02-14T17:21:22.173Z,14.57
2023-02-14T17:24:06.098Z,17.00
2023-02-14T17:26:49.896Z,14.60
2023-02-14T17:29:33.682Z,16.67
2023-02-14T17:32:17.598Z,18.03
2023-02-14T17:35:03.584Z,18.83
2023-02-14T17:37:49.520Z,19.30
2023-02-14T17:40:33.465Z,19.13
2023-02-14T17:43:17.278Z,17.73
2023-02-14T17:46:01.033Z,17.47
2023-02-14T17:48:45.713Z,18.07
2023-02-14T17:51:30.006Z,22.87
2023-02-14T17:54:15.248Z,18.77
2023-02-14T17:56:58.908Z,28.13
2023-02-14T17:59:45.449Z,28.47
2023-02-14T18:02:29.622Z,34.17
2023-02-14T18:05:13.465Z,30.90
2023-02-14T18:07:57.906Z,26.37
2023-02-14T18:10:43.074Z,39.13
2023-02-14T18:13:27.074Z,25.43
2023-02-14T18:16:12.628Z,24.73
2023-02-14T18:18:56.529Z,32.37
2023-02-14T18:21:41.077Z,25.27
2023-02-14T18:24:24.937Z,23.63
2023-02-14T18:27:10.609Z,24.40
2023-02-14T18:29:54.602Z,27.47
2023-02-14T18:32:38.404Z,27.77
2023-02-14T18:35:22.258Z,24.97
2023-02-14T18:38:06.588Z,24.13
2023-02-14T18:40:51.654Z,26.37
2023-02-14T18:43:37.908Z,26.43
2023-02-14T18:46:23.805Z,26.10
2023-02-14T18:49:08.747Z,28.40
2023-02-14T18:51:52.505Z,29.53
2023-02-14T18:54:36.483Z,27.00
2023-02-14T18:57:20.340Z,27.47
2023-02-14T19:00:12.143Z,22.83
2023-02-14T19:02:56.242Z,27.00
2023-02-14T19:05:40.070Z,29.83
2023-02-14T19:08:23.875Z,24.70
2023-02-14T19:11:12.630Z,28.00
2023-02-14T19:13:58.336Z,26.17
2023-02-14T19:16:50.511Z,24.67
2023-02-14T19:19:36.058Z,26.00
2023-02-14T19:22:20.112Z,29.53
2023-02-14T19:25:03.856Z,26.73
2023-02-14T19:27:48.181Z,27.50
2023-02-14T19:30:31.941Z,29.33
2023-02-14T19:33:17.383Z,28.67
2023-02-14T19:36:02.335Z,28.27
2023-02-14T19:38:48.162Z,30.00
2023-02-14T19:41:34.657Z,33.17
2023-02-14T19:44:20.192Z,28.73
2023-02-14T19:47:15.686Z,31.57
2023-02-14T19:50:10.814Z,30.57
2023-02-14T19:52:54.877Z,33.50
2023-02-14T19:55:40.446Z,33.43
2023-02-14T19:58:26.114Z,34.33
2023-02-14T20:01:21.745Z,32.07
2023-02-14T20:04:07.592Z,32.03
2023-02-14T20:06:54.220Z,33.80
2023-02-14T20:09:38.873Z,32.10
2023-02-14T20:12:22.938Z,35.17
2023-02-14T20:15:10.623Z,33.30
2023-02-14T20:17:54.764Z,35.33
2023-02-14T20:20:52.523Z,33.17
2023-02-14T20:23:38.030Z,37.00
2023-02-14T20:26:23.351Z,30.93
2023-02-14T20:29:09.823Z,34.40
2023-02-14T20:31:55.927Z,31.03
2023-02-14T20:34:40.441Z,30.33
2023-02-14T20:37:24.507Z,32.57
2023-02-14T20:40:12.465Z,32.70
2023-02-14T20:42:56.460Z,33.80
2023-02-14T20:45:40.412Z,34.30
2023-02-14T20:48:24.333Z,33.57
2023-02-14T20:51:13.123Z,32.17
2023-02-14T20:53:57.074Z,33.90
2023-02-14T20:56:42.542Z,34.23
2023-02-14T20:59:28.759Z,35.13
2023-02-14T21:02:13.082Z,35.23
2023-02-14T21:05:00.289Z,33.87
2023-02-14T21:07:44.095Z,35.60
2023-02-14T21:10:28.322Z,36.30
2023-02-14T21:13:13.563Z,31.50
2023-02-14T21:16:02.873Z,25.73
2023-02-14T21:18:52.475Z,31.00
2023-02-14T21:21:38.183Z,27.20
2023-02-14T21:24:21.991Z,32.10
2023-02-14T21:27:06.251Z,31.73
2023-02-14T21:29:51.933Z,28.00
2023-02-14T21:32:35.676Z,30.73
2023-02-14T21:35:19.904Z,31.33
2023-02-14T21:38:03.969Z,31.10
2023-02-14T21:40:48.180Z,31.23
2023-02-14T21:43:34.480Z,31.90
2023-02-14T21:46:24.657Z,36.30
2023-02-14T21:49:26.275Z,35.47
2023-02-14T21:52:10.234Z,34.50
2023-02-14T21:54:54.239Z,32.97
2023-02-14T21:57:38.199Z,33.77
2023-02-14T22:00:23.646Z,33.40
2023-02-14T22:03:09.439Z,30.83
2023-02-14T22:05:54.418Z,35.03
2023-02-14T22:08:38.476Z,35.07
2023-02-14T22:11:23.028Z,35.50
2023-02-14T22:14:07.191Z,36.17
2023-02-14T22:16:51.248Z,30.67
2023-02-14T22:19:37.322Z,35.57
2023-02-14T22:22:21.915Z,34.70
2023-02-14T22:25:06.300Z,32.87
2023-02-14T22:27:50.275Z,32.43
2023-02-14T22:30:34.285Z,31.33
2023-02-14T22:33:18.273Z,36.47
2023-02-14T22:36:04.114Z,35.23
2023-02-14T22:38:48.237Z,31.60
2023-02-14T22:41:33.187Z,30.17
2023-02-14T22:44:17.110Z,34.60
2023-02-14T22:47:01.396Z,33.63
2023-02-14T22:49:45.399Z,27.93
2023-02-14T22:52:30.792Z,28.40
2023-02-14T22:55:14.698Z,29.80
2023-02-14T22:57:58.850Z,31.80
2023-02-14T23:00:42.764Z,32.37
2023-02-14T23:03:26.765Z,26.93
2023-02-14T23:06:11.524Z,23.83
2023-02-14T23:08:57.895Z,23.40
2023-02-14T23:11:44.050Z,26.67
2023-02-14T23:14:45.631Z,21.77
2023-02-14T23:17:46.505Z,24.50
2023-02-14T23:20:48.439Z,26.47
2023-02-14T23:23:32.589Z,21.23
2023-02-14T23:26:21.657Z,22.40
2023-02-14T23:29:05.701Z,22.20
2023-02-14T23:31:49.875Z,18.27
2023-02-14T23:34:36.323Z,20.57
2023-02-14T23:37:20.432Z,19.93
2023-02-14T23:40:04.669Z,19.10
2023-02-14T23:42:50.407Z,19.90
2023-02-14T23:45:38.720Z,16.20
2023-02-14T23:48:22.638Z,18.27
2023-02-14T23:51:06.480Z,17.17
2023-02-14T23:53:50.461Z,16.53
2023-02-14T23:56:35.004Z,18.30
2023-02-14T23:59:21.534Z,15.70
